ADDS METAR Data INFO
IDs: Format: Raw Decoded Include TAF

Data at: 2159 UTC 16 Oct 2017

KGKY 162153Z 33007KT 10SM CLR 23/03 A3028 RMK AO2 SLP248 T02280033
KGKY 162053Z 10SM CLR 22/02 A3028 RMK AO2 SLP250 T02220017 56033
KGKY 161953Z 34006KT 10SM CLR 22/01 A3031 RMK AO2 SLP260 T02170011
KGKY 161853Z VRB06KT 10SM CLR 21/03 A3035 RMK AO2 SLP271 T02060033
KGKY 161753Z 36008KT 10SM CLR 20/04 A3038 RMK AO2 SLP284 T02000044 10200 20089 58014
KGKY 161653Z 04010KT 10SM CLR 18/05 A3041 RMK AO2 SLP292 T01830050
KGKY 161553Z VRB04KT 10SM CLR 17/06 A3043 RMK AO2 SLP300 T01670056
KGKY 161453Z 01009KT 10SM CLR 14/07 A3043 RMK AO2 SLP299 T01440067 53012
KGKY 161353Z 33007KT 10SM CLR 12/07 A3041 RMK AO2 SLP296 T01220072
KGKY 161253Z 32006KT 10SM CLR 09/07 A3040 RMK AO2 SLP290 T00940067 $
KGKY 161153Z 33005KT 10SM CLR 09/06 A3039 RMK AO2 SLP287 T00890061 10133 20089 53010 $
KGKY 161053Z AUTO 31006KT 10SM CLR 09/07 A3037 RMK AO2 SLP280 T00940067 $
KGKY 160953Z AUTO 32008KT 10SM CLR 10/07 A3036 RMK AO2 SLP277 T01000067 $
KGKY 160853Z AUTO 33008KT 10SM CLR 11/07 A3036 RMK AO2 SLP276 T01110067 50001 $
KGKY 160753Z AUTO 33007KT 10SM CLR 11/07 A3037 RMK AO2 SLP278 T01110067 $
KGKY 160653Z AUTO 33009KT 10SM CLR 13/07 A3037 RMK AO2 SLP278 T01280067 $
KGKY 160553Z AUTO 33008KT 10SM CLR 13/07 A3036 RMK AO2 SLP275 T01280067 10206 20128 402500128 50004 $
KGKY 160453Z AUTO 33008KT 10SM CLR 14/06 A3036 RMK AO2 SLP275 T01390061 $
KGKY 160353Z AUTO 32008KT 10SM CLR 13/07 A3036 RMK AO2 SLP276 T01330067 $
KGKY 160253Z AUTO 34007KT 10SM CLR 15/06 A3035 RMK AO2 SLP272 T01500061 51026 $
KGKY 160153Z AUTO 34009KT 10SM CLR 17/04 A3033 RMK AO2 SLP266 T01720044 $
KGKY 160053Z 35010KT 10SM CLR 19/03 A3030 RMK AO2 SLP255 T01890033 $
KGKY 152353Z 35012KT 10SM CLR 21/03 A3027 RMK AO2 SLP243 T02060028 10233 20200 53007 $
KGKY 152253Z 34016G22KT 10SM CLR 22/04 A3025 RMK AO2 SLP237 T02220039 $
KGKY 152153Z 34014G22KT 10SM CLR 23/06 A3025 RMK AO2 SLP236 T02280056 $
KGKY 152053Z 34018G25KT 10SM CLR 23/06 A3024 RMK AO2 PK WND 33027/2029 SLP234 T02280061 56015 $
KGKY 151953Z 34019G27KT 10SM CLR 23/06 A3025 RMK AO2 PK WND 34027/1951 SLP236 T02280061 $
KGKY 151853Z 35018G24KT 10SM CLR 21/08 A3027 RMK AO2 SLP243 T02060083 $
KGKY 151753Z 35016KT 10SM CLR 21/09 A3029 RMK AO2 SLP248 60000 T02110094 10211 20156 50008 $
KGKY 151653Z 34015G21KT 10SM CLR 19/11 A3029 RMK AO2 PK WND 34026/1619 SLP250 T01940111 $
KGKY 151627Z 34018G26KT 10SM SCT021 18/11 A3029 RMK AO2 PK WND 34026/1619 T01780111 $
KGKY 151553Z 35018KT 10SM OVC019 16/12 A3028 RMK AO2 SLP247 T01610117 $
KGKY 151453Z 33019G25KT 10SM OVC017 16/12 A3026 RMK AO2 PK WND 33027/1424 SLP241 60000 T01560122 51035 $
KGKY 151353Z 32019KT 10SM BKN021 OVC027 17/14 A3023 RMK AO2 PK WND 33028/1339 RAB13E24 SLP229 P0000 T01670139 $
KGKY 151311Z 33014G20KT 10SM SCT015 BKN023 OVC042 18/16 A3021 RMK AO2 T01780161 $
KGKY 151253Z 35016KT 10SM FEW016 FEW021 BKN041 18/16 A3020 RMK AO2 PK WND 34028/1200 SLP217 T01780156 $
KGKY 151202Z 35021G28KT 10SM SCT019 BKN037 OVC043 18/15 A3016 RMK AO2 PK WND 34028/1200 T01780150 $
KGKY 151153Z 35020G30KT 10SM BKN019 OVC033 18/15 A3016 RMK AO2 PK WND 35033/1117 SLP205 60001 70001 T01780150 10250 20178 53052 $
KGKY 151144Z AUTO 35020G32KT 10SM SCT017 OVC033 18/16 A3016 RMK AO2 PK WND 35033/1117 LTG DSNT N T01780156 $
KGKY 151124Z AUTO 35023G33KT 10SM BKN015 OVC029 18/16 A3014 RMK AO2 PK WND 35033/1117 LTG DSNT N AND NW PRESRR T01780161 $
KGKY 151053Z AUTO 35025G31KT 10SM OVC010 19/18 A3010 RMK AO2 PK WND 34031/1040 WSHFT 1008 LTG DSNT NW RAB02E28 SLP183 P0001 T01890183 $
KGKY 151035Z AUTO 34015G24KT 10SM BKN010 OVC023 20/19 A3009 RMK AO2 PK WND 34030/1010 WSHFT 1008 RAB02E28 P0001 T02000189 $
KGKY 151022Z AUTO 33017G28KT 10SM -RA FEW009 BKN025 OVC030 20/19 A3007 RMK AO2 PK WND 34030/1010 WSHFT 1008 RAB02 PRESRR P0001 T02000194 $
KGKY 151010Z AUTO 32020G30KT 10SM -RA BKN025 OVC041 23/21 A3006 RMK AO2 PK WND 34030/1010 RAB02 P0001 T02330211 $